sensor_id;sensor_type;location;lat;lon;timestamp;temperature;humidity
13389;DHT22;6764;53.250;10.410;2022-12-26T00:01:11;8.40;99.90
13389;DHT22;6764;53.250;10.410;2022-12-26T00:03:37;8.40;99.90
13389;DHT22;6764;53.250;10.410;2022-12-26T00:06:03;8.40;99.90
13389;DHT22;6764;53.250;10.410;2022-12-26T00:08:29;8.40;99.90
13389;DHT22;6764;53.250;10.410;2022-12-26T00:10:55;8.50;99.90
13389;DHT22;6764;53.250;10.410;2022-12-26T00:13:20;8.50;99.90
13389;DHT22;6764;53.250;10.410;2022-12-26T00:15:46;8.50;99.90
13389;DHT22;6764;53.250;10.410;2022-12-26T00:18:12;8.50;99.90
13389;DHT22;6764;53.250;10.410;2022-12-26T00:20:38;8.50;99.90
13389;DHT22;6764;53.250;10.410;2022-12-26T00:23:03;8.60;99.90
13389;DHT22;6764;53.250;10.410;2022-12-26T00:25:29;8.60;99.90
13389;DHT22;6764;53.250;10.410;2022-12-26T00:27:54;8.60;99.90
13389;DHT22;6764;53.250;10.410;2022-12-26T00:30:20;8.60;99.90
13389;DHT22;6764;53.250;10.410;2022-12-26T00:32:46;8.60;99.90
13389;DHT22;6764;53.250;10.410;2022-12-26T00:35:11;8.60;99.90
13389;DHT22;6764;53.250;10.410;2022-12-26T00:37:37;8.60;99.90
13389;DHT22;6764;53.250;10.410;2022-12-26T00:40:03;8.60;99.90
13389;DHT22;6764;53.250;10.410;2022-12-26T00:42:28;8.60;99.90
13389;DHT22;6764;53.250;10.410;2022-12-26T00:44:54;8.70;99.90
13389;DHT22;6764;53.250;10.410;2022-12-26T00:47:20;8.70;99.90
13389;DHT22;6764;53.250;10.410;2022-12-26T00:49:45;8.70;99.90
13389;DHT22;6764;53.250;10.410;2022-12-26T00:52:11;8.70;99.90
13389;DHT22;6764;53.250;10.410;2022-12-26T00:54:36;8.70;99.90
13389;DHT22;6764;53.250;10.410;2022-12-26T00:57:02;8.70;99.90
13389;DHT22;6764;53.250;10.410;2022-12-26T00:59:28;8.70;99.90
13389;DHT22;6764;53.250;10.410;2022-12-26T01:01:53;8.70;99.90
13389;DHT22;6764;53.250;10.410;2022-12-26T01:04:19;8.70;99.90
13389;DHT22;6764;53.250;10.410;2022-12-26T01:06:44;8.80;99.90
13389;DHT22;6764;53.250;10.410;2022-12-26T01:09:10;8.70;99.90
13389;DHT22;6764;53.250;10.410;2022-12-26T01:11:37;8.80;99.90
13389;DHT22;6764;53.250;10.410;2022-12-26T01:16:33;8.80;99.90
13389;DHT22;6764;53.250;10.410;2022-12-26T01:18:59;8.70;99.90
13389;DHT22;6764;53.250;10.410;2022-12-26T01:21:24;8.70;99.90
13389;DHT22;6764;53.250;10.410;2022-12-26T01:23:50;8.80;99.90
13389;DHT22;6764;53.250;10.410;2022-12-26T01:26:16;8.80;99.90
13389;DHT22;6764;53.250;10.410;2022-12-26T01:28:41;8.80;99.90
13389;DHT22;6764;53.250;10.410;2022-12-26T01:31:07;8.80;99.90
13389;DHT22;6764;53.250;10.410;2022-12-26T01:33:32;8.80;99.90
13389;DHT22;6764;53.250;10.410;2022-12-26T01:35:58;8.90;99.90
13389;DHT22;6764;53.250;10.410;2022-12-26T01:38:24;8.90;99.90
13389;DHT22;6764;53.250;10.410;2022-12-26T01:40:50;8.90;99.90
13389;DHT22;6764;53.250;10.410;2022-12-26T01:43:54;8.90;99.90
13389;DHT22;6764;53.250;10.410;2022-12-26T01:46:26;8.90;99.90
13389;DHT22;6764;53.250;10.410;2022-12-26T01:48:54;9.00;99.90
13389;DHT22;6764;53.250;10.410;2022-12-26T01:51:22;9.00;99.90
13389;DHT22;6764;53.250;10.410;2022-12-26T01:53:52;9.00;99.90
13389;DHT22;6764;53.250;10.410;2022-12-26T01:56:27;9.00;99.90
13389;DHT22;6764;53.250;10.410;2022-12-26T01:59:04;9.00;99.90
13389;DHT22;6764;53.250;10.410;2022-12-26T02:01:32;9.00;99.90
13389;DHT22;6764;53.250;10.410;2022-12-26T02:04:01;9.00;99.90
13389;DHT22;6764;53.250;10.410;2022-12-26T02:06:48;9.00;99.90
13389;DHT22;6764;53.250;10.410;2022-12-26T02:09:15;9.00;99.90
13389;DHT22;6764;53.250;10.410;2022-12-26T02:11:49;9.00;99.90
13389;DHT22;6764;53.250;10.410;2022-12-26T02:14:16;9.00;99.90
13389;DHT22;6764;53.250;10.410;2022-12-26T02:16:42;9.00;99.90
13389;DHT22;6764;53.250;10.410;2022-12-26T02:20:00;9.00;99.90
13389;DHT22;6764;53.250;10.410;2022-12-26T02:28:25;9.10;99.90
13389;DHT22;6764;53.250;10.410;2022-12-26T02:39:20;9.10;99.90
13389;DHT22;6764;53.250;10.410;2022-12-26T02:44:24;9.10;99.90
13389;DHT22;6764;53.250;10.410;2022-12-26T02:47:24;9.10;99.90
13389;DHT22;6764;53.250;10.410;2022-12-26T02:50:03;9.10;99.90
13389;DHT22;6764;53.250;10.410;2022-12-26T02:56:07;9.10;99.90
13389;DHT22;6764;53.250;10.410;2022-12-26T02:58:59;9.10;99.90
13389;DHT22;6764;53.250;10.410;2022-12-26T03:01:46;9.10;99.90
13389;DHT22;6764;53.250;10.410;2022-12-26T03:04:33;9.10;99.90
13389;DHT22;6764;53.250;10.410;2022-12-26T03:07:27;9.10;99.90
13389;DHT22;6764;53.250;10.410;2022-12-26T03:10:19;9.10;99.90
13389;DHT22;6764;53.250;10.410;2022-12-26T03:13:13;9.00;99.90
13389;DHT22;6764;53.250;10.410;2022-12-26T03:16:23;9.00;99.90
13389;DHT22;6764;53.250;10.410;2022-12-26T03:19:05;9.00;99.90
13389;DHT22;6764;53.250;10.410;2022-12-26T03:21:41;9.00;99.90
13389;DHT22;6764;53.250;10.410;2022-12-26T03:24:09;9.00;99.90
13389;DHT22;6764;53.250;10.410;2022-12-26T03:26:38;8.90;99.90
13389;DHT22;6764;53.250;10.410;2022-12-26T03:29:08;9.00;99.90
13389;DHT22;6764;53.250;10.410;2022-12-26T03:31:53;9.00;99.90
13389;DHT22;6764;53.250;10.410;2022-12-26T03:34:19;9.00;99.90
13389;DHT22;6764;53.250;10.410;2022-12-26T03:39:57;9.00;99.90
13389;DHT22;6764;53.250;10.410;2022-12-26T03:46:16;9.00;99.90
13389;DHT22;6764;53.250;10.410;2022-12-26T03:49:21;9.00;99.90
13389;DHT22;6764;53.250;10.410;2022-12-26T03:55:16;9.00;99.90
13389;DHT22;6764;53.250;10.410;2022-12-26T03:58:20;9.00;99.90
13389;DHT22;6764;53.250;10.410;2022-12-26T04:01:09;9.10;99.90
13389;DHT22;6764;53.250;10.410;2022-12-26T04:03:57;9.10;99.90
13389;DHT22;6764;53.250;10.410;2022-12-26T04:06:58;9.10;99.90
13389;DHT22;6764;53.250;10.410;2022-12-26T04:10:11;9.10;99.90
13389;DHT22;6764;53.250;10.410;2022-12-26T04:12:58;9.10;99.90
13389;DHT22;6764;53.250;10.410;2022-12-26T04:15:56;9.10;99.90
13389;DHT22;6764;53.250;10.410;2022-12-26T04:18:47;9.10;99.90
13389;DHT22;6764;53.250;10.410;2022-12-26T04:24:33;9.10;99.90
13389;DHT22;6764;53.250;10.410;2022-12-26T04:27:21;9.10;99.90
13389;DHT22;6764;53.250;10.410;2022-12-26T04:30:09;9.10;99.90
13389;DHT22;6764;53.250;10.410;2022-12-26T04:32:57;9.10;99.90
13389;DHT22;6764;53.250;10.410;2022-12-26T04:35:47;9.10;99.90
13389;DHT22;6764;53.250;10.410;2022-12-26T04:38:42;9.10;99.90
13389;DHT22;6764;53.250;10.410;2022-12-26T04:41:30;9.10;99.90
13389;DHT22;6764;53.250;10.410;2022-12-26T04:44:18;9.20;99.90
13389;DHT22;6764;53.250;10.410;2022-12-26T04:46:47;9.20;99.90
13389;DHT22;6764;53.250;10.410;2022-12-26T04:49:15;9.20;99.90
13389;DHT22;6764;53.250;10.410;2022-12-26T04:52:02;9.20;99.90
13389;DHT22;6764;53.250;10.410;2022-12-26T04:54:28;9.20;99.90
13389;DHT22;6764;53.250;10.410;2022-12-26T04:56:54;9.20;99.90
13389;DHT22;6764;53.250;10.410;2022-12-26T04:59:21;9.30;99.90
13389;DHT22;6764;53.250;10.410;2022-12-26T05:01:47;9.30;99.90
13389;DHT22;6764;53.250;10.410;2022-12-26T05:04:31;9.30;99.90
13389;DHT22;6764;53.250;10.410;2022-12-26T05:07:20;9.30;99.90
13389;DHT22;6764;53.250;10.410;2022-12-26T05:10:07;9.30;99.90
13389;DHT22;6764;53.250;10.410;2022-12-26T05:12:35;9.30;99.90
13389;DHT22;6764;53.250;10.410;2022-12-26T05:15:02;9.30;99.90
13389;DHT22;6764;53.250;10.410;2022-12-26T05:17:27;9.20;99.90
13389;DHT22;6764;53.250;10.410;2022-12-26T05:20:12;9.20;99.90
13389;DHT22;6764;53.250;10.410;2022-12-26T05:22:56;9.20;99.90
13389;DHT22;6764;53.250;10.410;2022-12-26T05:25:43;9.20;99.90
13389;DHT22;6764;53.250;10.410;2022-12-26T05:28:41;9.30;99.90
13389;DHT22;6764;53.250;10.410;2022-12-26T05:31:12;9.30;99.90
13389;DHT22;6764;53.250;10.410;2022-12-26T05:33:38;9.20;99.90
13389;DHT22;6764;53.250;10.410;2022-12-26T05:36:25;9.20;99.90
13389;DHT22;6764;53.250;10.410;2022-12-26T05:38:52;9.30;99.90
13389;DHT22;6764;53.250;10.410;2022-12-26T05:41:20;9.30;99.90
13389;DHT22;6764;53.250;10.410;2022-12-26T05:43:46;9.30;99.90
13389;DHT22;6764;53.250;10.410;2022-12-26T05:46:11;9.30;99.90
13389;DHT22;6764;53.250;10.410;2022-12-26T05:48:37;9.30;99.90
13389;DHT22;6764;53.250;10.410;2022-12-26T05:51:03;9.30;99.90
13389;DHT22;6764;53.250;10.410;2022-12-26T05:53:30;9.30;99.90
13389;DHT22;6764;53.250;10.410;2022-12-26T05:56:02;9.30;99.90
13389;DHT22;6764;53.250;10.410;2022-12-26T05:58:29;9.30;99.90
13389;DHT22;6764;53.250;10.410;2022-12-26T06:01:16;9.20;99.90
13389;DHT22;6764;53.250;10.410;2022-12-26T06:03:45;9.20;99.90
13389;DHT22;6764;53.250;10.410;2022-12-26T06:06:12;9.20;99.90
13389;DHT22;6764;53.250;10.410;2022-12-26T06:08:38;9.30;99.90
13389;DHT22;6764;53.250;10.410;2022-12-26T06:11:09;9.30;99.90
13389;DHT22;6764;53.250;10.410;2022-12-26T06:13:36;9.30;99.90
13389;DHT22;6764;53.250;10.410;2022-12-26T06:16:11;9.30;99.90
13389;DHT22;6764;53.250;10.410;2022-12-26T06:18:37;9.20;99.90
13389;DHT22;6764;53.250;10.410;2022-12-26T06:21:08;9.30;99.90
13389;DHT22;6764;53.250;10.410;2022-12-26T06:23:35;9.30;99.90
13389;DHT22;6764;53.250;10.410;2022-12-26T06:26:01;9.30;99.90
13389;DHT22;6764;53.250;10.410;2022-12-26T06:28:27;9.30;99.90
13389;DHT22;6764;53.250;10.410;2022-12-26T06:30:53;9.30;99.90
13389;DHT22;6764;53.250;10.410;2022-12-26T06:33:19;9.40;99.90
13389;DHT22;6764;53.250;10.410;2022-12-26T06:35:45;9.30;99.90
13389;DHT22;6764;53.250;10.410;2022-12-26T06:38:11;9.30;99.90
13389;DHT22;6764;53.250;10.410;2022-12-26T06:40:41;9.30;99.90
13389;DHT22;6764;53.250;10.410;2022-12-26T06:43:07;9.30;99.90
13389;DHT22;6764;53.250;10.410;2022-12-26T06:45:33;9.20;99.90
13389;DHT22;6764;53.250;10.410;2022-12-26T06:47:59;9.30;99.90
13389;DHT22;6764;53.250;10.410;2022-12-26T06:50:25;9.30;99.90
13389;DHT22;6764;53.250;10.410;2022-12-26T06:52:51;9.30;99.90
13389;DHT22;6764;53.250;10.410;2022-12-26T06:55:16;9.30;99.90
13389;DHT22;6764;53.250;10.410;2022-12-26T06:57:42;9.30;99.90
13389;DHT22;6764;53.250;10.410;2022-12-26T07:00:08;9.30;99.90
13389;DHT22;6764;53.250;10.410;2022-12-26T07:02:34;9.30;99.90
13389;DHT22;6764;53.250;10.410;2022-12-26T07:04:59;9.30;99.90
13389;DHT22;6764;53.250;10.410;2022-12-26T07:07:25;9.30;99.90
13389;DHT22;6764;53.250;10.410;2022-12-26T07:09:51;9.30;99.90
13389;DHT22;6764;53.250;10.410;2022-12-26T07:12:17;9.30;99.90
13389;DHT22;6764;53.250;10.410;2022-12-26T07:14:46;9.20;99.90
13389;DHT22;6764;53.250;10.410;2022-12-26T07:17:12;9.20;99.90
13389;DHT22;6764;53.250;10.410;2022-12-26T07:19:37;9.20;99.90
13389;DHT22;6764;53.250;10.410;2022-12-26T07:22:03;9.20;99.90
13389;DHT22;6764;53.250;10.410;2022-12-26T07:24:28;9.20;99.90
13389;DHT22;6764;53.250;10.410;2022-12-26T07:26:54;9.20;99.90
13389;DHT22;6764;53.250;10.410;2022-12-26T07:29:20;9.20;99.90
13389;DHT22;6764;53.250;10.410;2022-12-26T07:31:47;9.30;99.90
13389;DHT22;6764;53.250;10.410;2022-12-26T07:34:13;9.20;99.90
13389;DHT22;6764;53.250;10.410;2022-12-26T07:36:39;9.20;99.90
13389;DHT22;6764;53.250;10.410;2022-12-26T07:39:05;9.30;99.90
13389;DHT22;6764;53.250;10.410;2022-12-26T07:41:31;9.30;99.90
13389;DHT22;6764;53.250;10.410;2022-12-26T07:44:15;9.30;99.90
13389;DHT22;6764;53.250;10.410;2022-12-26T07:46:41;9.40;99.90
13389;DHT22;6764;53.250;10.410;2022-12-26T07:49:06;9.40;99.90
13389;DHT22;6764;53.250;10.410;2022-12-26T07:51:32;9.40;99.90
13389;DHT22;6764;53.250;10.410;2022-12-26T07:53:58;9.30;99.90
13389;DHT22;6764;53.250;10.410;2022-12-26T07:56:23;9.30;99.90
13389;DHT22;6764;53.250;10.410;2022-12-26T07:58:50;9.40;99.90
13389;DHT22;6764;53.250;10.410;2022-12-26T08:01:16;9.40;99.90
13389;DHT22;6764;53.250;10.410;2022-12-26T08:03:42;9.40;99.90
13389;DHT22;6764;53.250;10.410;2022-12-26T08:06:11;9.40;99.90
13389;DHT22;6764;53.250;10.410;2022-12-26T08:08:37;9.30;99.90
13389;DHT22;6764;53.250;10.410;2022-12-26T08:11:05;9.30;99.90
13389;DHT22;6764;53.250;10.410;2022-12-26T08:13:31;9.30;99.90
13389;DHT22;6764;53.250;10.410;2022-12-26T08:15:58;9.30;99.90
13389;DHT22;6764;53.250;10.410;2022-12-26T08:18:24;9.30;99.90
13389;DHT22;6764;53.250;10.410;2022-12-26T08:20:50;9.20;99.90
13389;DHT22;6764;53.250;10.410;2022-12-26T08:23:16;9.30;99.90
13389;DHT22;6764;53.250;10.410;2022-12-26T08:25:42;9.30;99.90
13389;DHT22;6764;53.250;10.410;2022-12-26T08:28:07;9.30;99.90
13389;DHT22;6764;53.250;10.410;2022-12-26T08:30:33;9.40;99.90
13389;DHT22;6764;53.250;10.410;2022-12-26T08:32:59;9.40;99.90
13389;DHT22;6764;53.250;10.410;2022-12-26T08:35:24;9.40;99.90
13389;DHT22;6764;53.250;10.410;2022-12-26T08:37:50;9.50;99.90
13389;DHT22;6764;53.250;10.410;2022-12-26T08:40:16;9.50;99.90
13389;DHT22;6764;53.250;10.410;2022-12-26T08:42:41;9.50;99.90
13389;DHT22;6764;53.250;10.410;2022-12-26T08:45:07;9.50;99.90
13389;DHT22;6764;53.250;10.410;2022-12-26T08:47:33;9.50;99.90
13389;DHT22;6764;53.250;10.410;2022-12-26T08:49:58;9.50;99.90
13389;DHT22;6764;53.250;10.410;2022-12-26T08:52:24;9.60;99.90
13389;DHT22;6764;53.250;10.410;2022-12-26T08:54:50;9.60;99.90
13389;DHT22;6764;53.250;10.410;2022-12-26T08:57:15;9.60;99.90
13389;DHT22;6764;53.250;10.410;2022-12-26T08:59:41;9.60;99.90
13389;DHT22;6764;53.250;10.410;2022-12-26T09:02:10;9.60;99.90
13389;DHT22;6764;53.250;10.410;2022-12-26T09:04:35;9.60;99.90
13389;DHT22;6764;53.250;10.410;2022-12-26T09:07:01;9.60;99.90
13389;DHT22;6764;53.250;10.410;2022-12-26T09:09:27;9.50;99.90
13389;DHT22;6764;53.250;10.410;2022-12-26T09:11:53;9.60;99.90
13389;DHT22;6764;53.250;10.410;2022-12-26T09:14:18;9.60;99.90
13389;DHT22;6764;53.250;10.410;2022-12-26T09:16:44;9.60;99.90
13389;DHT22;6764;53.250;10.410;2022-12-26T09:19:13;9.60;99.90
13389;DHT22;6764;53.250;10.410;2022-12-26T09:21:39;9.60;99.90
13389;DHT22;6764;53.250;10.410;2022-12-26T09:24:10;9.60;99.90
13389;DHT22;6764;53.250;10.410;2022-12-26T09:26:36;9.60;99.90
13389;DHT22;6764;53.250;10.410;2022-12-26T09:29:02;9.70;99.90
13389;DHT22;6764;53.250;10.410;2022-12-26T09:31:31;9.70;99.90
13389;DHT22;6764;53.250;10.410;2022-12-26T09:33:57;9.70;99.90
13389;DHT22;6764;53.250;10.410;2022-12-26T09:36:25;9.70;99.90
13389;DHT22;6764;53.250;10.410;2022-12-26T09:38:51;9.70;99.90
13389;DHT22;6764;53.250;10.410;2022-12-26T09:44:27;9.70;99.90
13389;DHT22;6764;53.250;10.410;2022-12-26T09:47:20;9.80;99.90
13389;DHT22;6764;53.250;10.410;2022-12-26T09:49:55;9.90;99.90
13389;DHT22;6764;53.250;10.410;2022-12-26T09:52:26;10.00;99.90
13389;DHT22;6764;53.250;10.410;2022-12-26T09:54:59;10.00;99.90
13389;DHT22;6764;53.250;10.410;2022-12-26T09:57:34;10.00;99.90
13389;DHT22;6764;53.250;10.410;2022-12-26T10:00:04;10.00;99.90
13389;DHT22;6764;53.250;10.410;2022-12-26T10:02:30;10.00;99.90
13389;DHT22;6764;53.250;10.410;2022-12-26T10:04:55;10.00;99.90
13389;DHT22;6764;53.250;10.410;2022-12-26T10:07:36;10.00;99.90
13389;DHT22;6764;53.250;10.410;2022-12-26T10:10:19;10.00;99.90
13389;DHT22;6764;53.250;10.410;2022-12-26T10:13:12;10.00;99.90
13389;DHT22;6764;53.250;10.410;2022-12-26T10:15:47;10.00;99.90
13389;DHT22;6764;53.250;10.410;2022-12-26T10:24:00;9.90;99.90
13389;DHT22;6764;53.250;10.410;2022-12-26T10:26:39;10.00;99.90
13389;DHT22;6764;53.250;10.410;2022-12-26T10:31:49;10.10;99.90
13389;DHT22;6764;53.250;10.410;2022-12-26T10:34:20;10.10;99.90
13389;DHT22;6764;53.250;10.410;2022-12-26T10:36:53;10.10;99.90
13389;DHT22;6764;53.250;10.410;2022-12-26T10:39:25;10.10;99.90
13389;DHT22;6764;53.250;10.410;2022-12-26T10:41:56;10.20;99.90
13389;DHT22;6764;53.250;10.410;2022-12-26T10:44:22;10.30;99.90
13389;DHT22;6764;53.250;10.410;2022-12-26T10:47:09;10.30;99.90
13389;DHT22;6764;53.250;10.410;2022-12-26T10:49:38;10.30;99.90
13389;DHT22;6764;53.250;10.410;2022-12-26T10:52:04;10.40;99.90
13389;DHT22;6764;53.250;10.410;2022-12-26T10:54:30;10.40;99.90
13389;DHT22;6764;53.250;10.410;2022-12-26T10:56:58;10.40;99.90
13389;DHT22;6764;53.250;10.410;2022-12-26T10:59:45;10.50;99.90
13389;DHT22;6764;53.250;10.410;2022-12-26T11:02:22;10.50;99.90
13389;DHT22;6764;53.250;10.410;2022-12-26T11:05:09;10.50;99.90
13389;DHT22;6764;53.250;10.410;2022-12-26T11:07:40;10.50;99.90
13389;DHT22;6764;53.250;10.410;2022-12-26T11:10:17;10.40;99.90
13389;DHT22;6764;53.250;10.410;2022-12-26T11:12:47;10.30;99.90
13389;DHT22;6764;53.250;10.410;2022-12-26T11:17:47;10.30;99.90
13389;DHT22;6764;53.250;10.410;2022-12-26T11:22:41;10.30;99.90
13389;DHT22;6764;53.250;10.410;2022-12-26T11:27:32;10.40;99.90
13389;DHT22;6764;53.250;10.410;2022-12-26T11:32:35;10.50;99.90
13389;DHT22;6764;53.250;10.410;2022-12-26T11:35:02;10.70;99.90
13389;DHT22;6764;53.250;10.410;2022-12-26T11:37:39;10.70;99.90
13389;DHT22;6764;53.250;10.410;2022-12-26T11:40:14;10.60;99.90
13389;DHT22;6764;53.250;10.410;2022-12-26T11:42:40;10.70;99.90
13389;DHT22;6764;53.250;10.410;2022-12-26T11:45:09;10.60;99.90
13389;DHT22;6764;53.250;10.410;2022-12-26T11:47:36;10.60;99.90
13389;DHT22;6764;53.250;10.410;2022-12-26T11:50:05;10.60;99.90
13389;DHT22;6764;53.250;10.410;2022-12-26T12:00:33;10.70;99.90
13389;DHT22;6764;53.250;10.410;2022-12-26T12:03:00;10.60;99.90
13389;DHT22;6764;53.250;10.410;2022-12-26T12:05:37;10.60;99.90
13389;DHT22;6764;53.250;10.410;2022-12-26T12:08:34;10.60;99.90
13389;DHT22;6764;53.250;10.410;2022-12-26T12:11:07;10.70;99.90
13389;DHT22;6764;53.250;10.410;2022-12-26T12:16:55;10.70;99.90
13389;DHT22;6764;53.250;10.410;2022-12-26T12:22:09;10.60;99.90
13389;DHT22;6764;53.250;10.410;2022-12-26T12:25:20;10.60;99.90
13389;DHT22;6764;53.250;10.410;2022-12-26T12:30:40;10.50;99.90
13389;DHT22;6764;53.250;10.410;2022-12-26T12:33:19;10.50;99.90
13389;DHT22;6764;53.250;10.410;2022-12-26T12:44:21;10.40;99.90
13389;DHT22;6764;53.250;10.410;2022-12-26T12:47:26;10.50;99.90
13389;DHT22;6764;53.250;10.410;2022-12-26T12:55:51;10.40;99.90
13389;DHT22;6764;53.250;10.410;2022-12-26T12:59:26;10.40;99.90
13389;DHT22;6764;53.250;10.410;2022-12-26T13:01:40;10.20;99.90
13389;DHT22;6764;53.250;10.410;2022-12-26T13:04:12;10.20;99.90
13389;DHT22;6764;53.250;10.410;2022-12-26T13:06:46;10.20;99.90
13389;DHT22;6764;53.250;10.410;2022-12-26T13:09:28;10.20;99.90
13389;DHT22;6764;53.250;10.410;2022-12-26T13:12:01;10.20;99.90
13389;DHT22;6764;53.250;10.410;2022-12-26T13:17:20;10.20;99.90
13389;DHT22;6764;53.250;10.410;2022-12-26T13:20:10;10.20;99.90
13389;DHT22;6764;53.250;10.410;2022-12-26T13:22:41;10.20;99.90
13389;DHT22;6764;53.250;10.410;2022-12-26T13:25:33;10.30;99.90
13389;DHT22;6764;53.250;10.410;2022-12-26T13:28:04;10.20;99.90
13389;DHT22;6764;53.250;10.410;2022-12-26T13:30:36;10.20;99.90
13389;DHT22;6764;53.250;10.410;2022-12-26T13:33:03;10.30;99.90
13389;DHT22;6764;53.250;10.410;2022-12-26T13:35:53;10.30;99.90
13389;DHT22;6764;53.250;10.410;2022-12-26T13:38:20;10.30;99.90
13389;DHT22;6764;53.250;10.410;2022-12-26T13:43:25;10.20;99.90
13389;DHT22;6764;53.250;10.410;2022-12-26T13:49:34;10.20;99.90
13389;DHT22;6764;53.250;10.410;2022-12-26T14:00:39;10.20;99.90
13389;DHT22;6764;53.250;10.410;2022-12-26T14:16:33;10.30;99.90
13389;DHT22;6764;53.250;10.410;2022-12-26T14:45:57;9.60;99.90
13389;DHT22;6764;53.250;10.410;2022-12-26T14:58:37;9.10;99.90
13389;DHT22;6764;53.250;10.410;2022-12-26T15:03:54;8.90;99.90
13389;DHT22;6764;53.250;10.410;2022-12-26T15:21:01;8.80;99.90
13389;DHT22;6764;53.250;10.410;2022-12-26T15:35:09;8.50;99.90
13389;DHT22;6764;53.250;10.410;2022-12-26T15:40:34;8.20;99.90
13389;DHT22;6764;53.250;10.410;2022-12-26T15:43:23;8.10;99.90
13389;DHT22;6764;53.250;10.410;2022-12-26T15:54:52;7.90;99.90
13389;DHT22;6764;53.250;10.410;2022-12-26T15:57:40;7.90;99.90
13389;DHT22;6764;53.250;10.410;2022-12-26T16:00:37;7.90;99.90
13389;DHT22;6764;53.250;10.410;2022-12-26T16:09:02;7.70;99.90
13389;DHT22;6764;53.250;10.410;2022-12-26T16:14:33;7.70;99.90
13389;DHT22;6764;53.250;10.410;2022-12-26T16:17:28;7.60;99.90
13389;DHT22;6764;53.250;10.410;2022-12-26T16:19:54;7.40;99.90
13389;DHT22;6764;53.250;10.410;2022-12-26T16:22:32;7.30;99.90
13389;DHT22;6764;53.250;10.410;2022-12-26T16:25:16;7.30;99.90
13389;DHT22;6764;53.250;10.410;2022-12-26T16:27:44;7.20;99.90
13389;DHT22;6764;53.250;10.410;2022-12-26T16:30:25;7.20;99.90
13389;DHT22;6764;53.250;10.410;2022-12-26T16:32:52;7.10;99.90
13389;DHT22;6764;53.250;10.410;2022-12-26T16:35:24;7.00;99.90
13389;DHT22;6764;53.250;10.410;2022-12-26T16:37:52;7.00;99.90
13389;DHT22;6764;53.250;10.410;2022-12-26T16:40:21;7.00;99.90
13389;DHT22;6764;53.250;10.410;2022-12-26T16:43:00;6.90;99.90
13389;DHT22;6764;53.250;10.410;2022-12-26T16:45:29;6.90;99.90
13389;DHT22;6764;53.250;10.410;2022-12-26T16:47:55;6.80;99.90
13389;DHT22;6764;53.250;10.410;2022-12-26T16:50:27;6.80;99.90
13389;DHT22;6764;53.250;10.410;2022-12-26T16:55:42;6.70;99.90
13389;DHT22;6764;53.250;10.410;2022-12-26T16:58:14;6.70;99.90
13389;DHT22;6764;53.250;10.410;2022-12-26T17:06:11;6.50;99.90
13389;DHT22;6764;53.250;10.410;2022-12-26T17:08:46;6.50;99.90
13389;DHT22;6764;53.250;10.410;2022-12-26T17:11:12;6.40;99.90
13389;DHT22;6764;53.250;10.410;2022-12-26T17:13:38;6.40;99.90
13389;DHT22;6764;53.250;10.410;2022-12-26T17:16:06;6.40;99.90
13389;DHT22;6764;53.250;10.410;2022-12-26T17:18:44;6.30;99.90
13389;DHT22;6764;53.250;10.410;2022-12-26T17:23:45;6.30;99.90
13389;DHT22;6764;53.250;10.410;2022-12-26T17:26:25;6.30;99.90
13389;DHT22;6764;53.250;10.410;2022-12-26T17:28:51;6.30;99.90
13389;DHT22;6764;53.250;10.410;2022-12-26T17:33:45;6.20;99.90
13389;DHT22;6764;53.250;10.410;2022-12-26T17:36:13;6.20;99.90
13389;DHT22;6764;53.250;10.410;2022-12-26T17:38:41;6.20;99.90
13389;DHT22;6764;53.250;10.410;2022-12-26T17:41:11;6.20;99.90
13389;DHT22;6764;53.250;10.410;2022-12-26T17:43:38;6.20;99.90
13389;DHT22;6764;53.250;10.410;2022-12-26T17:46:06;6.20;99.90
13389;DHT22;6764;53.250;10.410;2022-12-26T17:48:33;6.20;99.90
13389;DHT22;6764;53.250;10.410;2022-12-26T17:51:02;6.20;99.90
13389;DHT22;6764;53.250;10.410;2022-12-26T17:53:36;6.10;99.90
13389;DHT22;6764;53.250;10.410;2022-12-26T17:56:05;6.20;99.90
13389;DHT22;6764;53.250;10.410;2022-12-26T17:58:32;6.20;99.90
13389;DHT22;6764;53.250;10.410;2022-12-26T18:00:58;6.20;99.90
13389;DHT22;6764;53.250;10.410;2022-12-26T18:03:24;6.10;99.90
13389;DHT22;6764;53.250;10.410;2022-12-26T18:05:50;6.10;99.90
13389;DHT22;6764;53.250;10.410;2022-12-26T18:08:26;6.10;99.90
13389;DHT22;6764;53.250;10.410;2022-12-26T18:10:53;6.00;99.90
13389;DHT22;6764;53.250;10.410;2022-12-26T18:13:19;6.00;99.90
13389;DHT22;6764;53.250;10.410;2022-12-26T18:15:45;6.00;99.90
13389;DHT22;6764;53.250;10.410;2022-12-26T18:18:35;6.00;99.90
13389;DHT22;6764;53.250;10.410;2022-12-26T18:21:03;6.00;99.90
13389;DHT22;6764;53.250;10.410;2022-12-26T18:23:31;6.00;99.90
13389;DHT22;6764;53.250;10.410;2022-12-26T18:26:00;6.00;99.90
13389;DHT22;6764;53.250;10.410;2022-12-26T18:28:26;6.00;99.90
13389;DHT22;6764;53.250;10.410;2022-12-26T18:30:52;6.00;99.90
13389;DHT22;6764;53.250;10.410;2022-12-26T18:33:19;6.00;99.90
13389;DHT22;6764;53.250;10.410;2022-12-26T18:35:45;6.10;99.90
13389;DHT22;6764;53.250;10.410;2022-12-26T18:38:14;6.00;99.90
13389;DHT22;6764;53.250;10.410;2022-12-26T18:40:43;6.00;99.90
13389;DHT22;6764;53.250;10.410;2022-12-26T18:43:09;5.90;99.90
13389;DHT22;6764;53.250;10.410;2022-12-26T18:45:36;5.90;99.90
13389;DHT22;6764;53.250;10.410;2022-12-26T18:48:02;5.80;99.90
13389;DHT22;6764;53.250;10.410;2022-12-26T18:50:29;5.80;99.90
13389;DHT22;6764;53.250;10.410;2022-12-26T18:52:56;5.80;99.90
13389;DHT22;6764;53.250;10.410;2022-12-26T18:55:22;5.70;99.90
13389;DHT22;6764;53.250;10.410;2022-12-26T18:57:50;5.70;99.90
13389;DHT22;6764;53.250;10.410;2022-12-26T19:00:16;5.70;99.90
13389;DHT22;6764;53.250;10.410;2022-12-26T19:02:43;5.70;99.90
13389;DHT22;6764;53.250;10.410;2022-12-26T19:05:15;5.60;99.90
13389;DHT22;6764;53.250;10.410;2022-12-26T19:07:42;5.60;99.90
13389;DHT22;6764;53.250;10.410;2022-12-26T19:10:09;5.60;99.90
13389;DHT22;6764;53.250;10.410;2022-12-26T19:12:35;5.60;99.90
13389;DHT22;6764;53.250;10.410;2022-12-26T19:15:01;5.50;99.90
13389;DHT22;6764;53.250;10.410;2022-12-26T19:17:26;5.50;99.90
13389;DHT22;6764;53.250;10.410;2022-12-26T19:19:52;5.50;99.90
13389;DHT22;6764;53.250;10.410;2022-12-26T19:22:17;5.50;99.90
13389;DHT22;6764;53.250;10.410;2022-12-26T19:24:44;5.50;99.90
13389;DHT22;6764;53.250;10.410;2022-12-26T19:27:10;5.40;99.90
13389;DHT22;6764;53.250;10.410;2022-12-26T19:29:35;5.40;99.90
13389;DHT22;6764;53.250;10.410;2022-12-26T19:32:01;5.30;99.90
13389;DHT22;6764;53.250;10.410;2022-12-26T19:34:27;5.30;99.90
13389;DHT22;6764;53.250;10.410;2022-12-26T19:36:53;5.30;99.90
13389;DHT22;6764;53.250;10.410;2022-12-26T19:39:19;5.30;99.90
13389;DHT22;6764;53.250;10.410;2022-12-26T19:41:45;5.30;99.90
13389;DHT22;6764;53.250;10.410;2022-12-26T19:44:11;5.20;99.90
13389;DHT22;6764;53.250;10.410;2022-12-26T19:46:36;5.20;99.90
13389;DHT22;6764;53.250;10.410;2022-12-26T19:49:02;5.20;99.90
13389;DHT22;6764;53.250;10.410;2022-12-26T19:51:28;5.20;99.90